createdAt,value
2022-12-15T00:02:21.481Z,40.93
2022-12-15T00:05:07.514Z,42.07
2022-12-15T00:07:53.173Z,38.80
2022-12-15T00:10:38.803Z,39.27
2022-12-15T00:13:31.349Z,40.87
2022-12-15T00:16:17.132Z,37.67
2022-12-15T00:19:02.368Z,39.70
2022-12-15T00:21:48.317Z,37.70
2022-12-15T00:24:33.611Z,36.30
2022-12-15T00:27:19.272Z,35.83
2022-12-15T00:30:04.925Z,35.80
2022-12-15T00:32:50.201Z,37.37
2022-12-15T00:35:35.413Z,35.43
2022-12-15T00:38:31.008Z,33.90
2022-12-15T00:40:59.856Z,33.80
2022-12-15T00:43:27.821Z,32.50
2022-12-15T00:46:13.858Z,37.07
2022-12-15T00:48:41.018Z,39.87
2022-12-15T00:51:07.915Z,34.80
2022-12-15T00:53:53.036Z,36.70
2022-12-15T00:56:38.385Z,38.23
2022-12-15T00:59:23.779Z,35.17
2022-12-15T01:02:09.461Z,36.77
2022-12-15T01:04:55.250Z,35.70
2022-12-15T01:07:40.441Z,37.63
2022-12-15T01:10:26.034Z,36.20
2022-12-15T01:13:11.412Z,36.00
2022-12-15T01:15:57.138Z,37.23
2022-12-15T01:18:42.963Z,35.97
2022-12-15T01:21:10.819Z,37.83
2022-12-15T01:23:38.254Z,36.23
2022-12-15T01:26:05.993Z,35.03
2022-12-15T01:28:33.013Z,38.40
2022-12-15T01:30:59.817Z,39.10
2022-12-15T01:33:26.613Z,38.10
2022-12-15T01:36:00.098Z,37.90
2022-12-15T01:38:27.328Z,40.77
2022-12-15T01:40:55.575Z,39.33
2022-12-15T01:43:24.838Z,41.17
2022-12-15T01:45:54.563Z,46.53
2022-12-15T01:48:26.881Z,38.63
2022-12-15T01:50:57.537Z,43.40
2022-12-15T01:53:24.399Z,41.47
2022-12-15T01:55:51.710Z,40.50
2022-12-15T01:58:20.602Z,39.80
2022-12-15T02:00:47.544Z,40.37
2022-12-15T02:03:14.832Z,38.33
2022-12-15T02:05:42.550Z,37.47
2022-12-15T02:08:09.805Z,38.50
2022-12-15T02:10:50.635Z,39.50
2022-12-15T02:13:26.751Z,41.47
2022-12-15T02:16:00.455Z,41.40
2022-12-15T02:18:30.359Z,40.47
2022-12-15T02:21:15.964Z,42.20
2022-12-15T02:24:06.816Z,39.13
2022-12-15T02:26:51.325Z,38.03
2022-12-15T02:29:26.039Z,40.73
2022-12-15T02:31:55.629Z,42.93
2022-12-15T02:34:29.188Z,41.90
2022-12-15T02:36:59.858Z,42.53
2022-12-15T02:39:26.808Z,41.47
2022-12-15T02:41:53.738Z,41.60
2022-12-15T02:44:25.079Z,40.50
2022-12-15T02:46:59.723Z,40.13
2022-12-15T02:49:26.513Z,40.47
2022-12-15T02:51:53.285Z,40.13
2022-12-15T02:54:20.198Z,39.23
2022-12-15T02:56:53.224Z,40.87
2022-12-15T02:59:24.679Z,41.60
2022-12-15T03:01:51.780Z,39.23
2022-12-15T03:04:19.495Z,41.13
2022-12-15T03:06:58.950Z,43.27
2022-12-15T03:09:27.646Z,44.80
2022-12-15T03:11:54.387Z,43.70
2022-12-15T03:14:21.301Z,42.87
2022-12-15T03:16:48.402Z,43.43
2022-12-15T03:19:15.212Z,40.87
2022-12-15T03:21:42.056Z,42.43
2022-12-15T03:24:09.287Z,41.60
2022-12-15T03:26:36.322Z,41.93
2022-12-15T03:29:03.223Z,41.67
2022-12-15T03:31:30.146Z,44.30
2022-12-15T03:33:57.618Z,42.90
2022-12-15T03:36:24.363Z,41.70
2022-12-15T03:38:51.241Z,41.97
2022-12-15T03:41:20.942Z,42.83
2022-12-15T03:43:49.694Z,44.07
2022-12-15T03:46:17.299Z,42.80
2022-12-15T03:48:44.127Z,46.53
2022-12-15T03:51:10.962Z,43.33
2022-12-15T03:53:37.820Z,43.57
2022-12-15T03:56:04.678Z,42.87
2022-12-15T03:58:31.507Z,43.27
2022-12-15T04:00:58.458Z,46.00
2022-12-15T04:03:25.307Z,45.47
2022-12-15T04:05:52.249Z,44.17
2022-12-15T04:08:19.009Z,45.67
2022-12-15T04:10:45.829Z,45.37
2022-12-15T04:13:12.706Z,44.70
2022-12-15T04:15:40.029Z,44.23
2022-12-15T04:18:10.015Z,42.47
2022-12-15T04:20:38.302Z,50.70
2022-12-15T04:23:07.965Z,45.53
2022-12-15T04:25:54.116Z,44.00
2022-12-15T04:28:39.292Z,43.73
2022-12-15T04:31:36.019Z,43.17
2022-12-15T04:34:23.778Z,41.40
2022-12-15T04:37:11.426Z,45.27
2022-12-15T04:39:58.909Z,43.17
2022-12-15T04:42:44.415Z,46.73
2022-12-15T04:45:30.862Z,48.37
2022-12-15T04:48:16.406Z,45.97
2022-12-15T04:51:01.625Z,45.80
2022-12-15T04:53:47.322Z,46.63
2022-12-15T04:56:33.643Z,41.07
2022-12-15T04:59:19.451Z,43.33
2022-12-15T05:02:05.267Z,41.33
2022-12-15T05:04:50.628Z,41.17
2022-12-15T05:07:36.204Z,42.57
2022-12-15T05:10:22.149Z,42.37
2022-12-15T05:13:07.889Z,43.03
2022-12-15T05:15:53.677Z,42.97
2022-12-15T05:18:39.183Z,46.53
2022-12-15T05:21:25.267Z,46.67
2022-12-15T05:24:10.349Z,43.20
2022-12-15T05:26:56.008Z,41.27
2022-12-15T05:29:41.105Z,40.47
2022-12-15T05:32:08.498Z,37.83
2022-12-15T05:34:35.896Z,42.70
2022-12-15T05:37:04.067Z,38.77
2022-12-15T05:39:30.905Z,38.53
2022-12-15T05:41:57.878Z,41.20
2022-12-15T05:44:25.365Z,41.37
2022-12-15T05:46:52.492Z,41.67
2022-12-15T05:49:19.723Z,41.37
2022-12-15T05:51:47.382Z,39.43
2022-12-15T05:54:15.639Z,37.50
2022-12-15T05:56:42.474Z,37.10
2022-12-15T05:59:09.561Z,34.57
2022-12-15T06:01:37.034Z,33.60
2022-12-15T06:04:04.265Z,35.63
2022-12-15T06:06:31.060Z,35.40
2022-12-15T06:08:58.392Z,35.37
2022-12-15T06:11:25.204Z,34.87
2022-12-15T06:13:53.488Z,34.63
2022-12-15T06:16:20.903Z,32.43
2022-12-15T06:18:50.663Z,33.47
2022-12-15T06:21:23.478Z,31.27
2022-12-15T06:23:50.510Z,31.57
2022-12-15T06:26:25.619Z,32.53
2022-12-15T06:28:52.873Z,29.93
2022-12-15T06:31:22.990Z,31.13
2022-12-15T06:33:52.545Z,37.40
2022-12-15T06:36:26.512Z,36.83
2022-12-15T06:38:53.335Z,35.97
2022-12-15T06:41:21.289Z,33.20
2022-12-15T06:43:51.996Z,33.37
2022-12-15T06:46:19.250Z,28.73
2022-12-15T06:48:46.405Z,30.73
2022-12-15T06:51:17.173Z,29.43
2022-12-15T06:53:52.779Z,37.57
2022-12-15T06:56:32.188Z,33.90
2022-12-15T06:59:00.520Z,27.97
2022-12-15T07:01:27.491Z,30.63
2022-12-15T07:03:55.350Z,31.67
2022-12-15T07:06:22.328Z,29.47
2022-12-15T07:08:52.508Z,28.03
2022-12-15T07:11:21.130Z,30.77
2022-12-15T07:13:54.460Z,34.63
2022-12-15T07:16:22.315Z,32.67
2022-12-15T07:18:49.756Z,43.30
2022-12-15T07:21:17.222Z,50.00
2022-12-15T07:24:00.769Z,42.60
2022-12-15T07:26:28.271Z,40.90
2022-12-15T07:28:55.049Z,39.07
2022-12-15T07:31:22.539Z,41.37
2022-12-15T07:33:49.659Z,37.27
2022-12-15T07:36:16.644Z,47.70
2022-12-15T07:38:50.760Z,32.07
2022-12-15T07:41:18.798Z,34.13
2022-12-15T07:43:46.810Z,33.90
2022-12-15T07:46:14.097Z,35.33
2022-12-15T07:48:40.914Z,37.60
2022-12-15T07:51:13.843Z,46.07
2022-12-15T07:53:44.133Z,42.60
2022-12-15T07:56:10.951Z,43.53
2022-12-15T07:58:38.421Z,42.63
2022-12-15T08:01:06.622Z,41.60
2022-12-15T08:03:34.621Z,41.90
2022-12-15T08:06:10.254Z,36.33
2022-12-15T08:08:38.478Z,33.63
2022-12-15T08:11:09.316Z,32.83
2022-12-15T08:16:23.820Z,30.73
2022-12-15T08:18:50.660Z,28.43
2022-12-15T08:21:17.744Z,29.07
2022-12-15T08:23:44.582Z,31.40
2022-12-15T08:26:13.393Z,33.50
2022-12-15T08:28:41.284Z,34.40
2022-12-15T08:31:09.575Z,32.00
2022-12-15T08:33:36.897Z,29.37
2022-12-15T08:36:07.948Z,30.67
2022-12-15T08:38:35.328Z,28.10
2022-12-15T08:41:16.234Z,29.27
2022-12-15T08:43:48.580Z,29.67
2022-12-15T08:46:20.380Z,30.90
2022-12-15T08:48:47.652Z,31.30
2022-12-15T08:51:14.946Z,29.23
2022-12-15T08:53:42.043Z,29.97
2022-12-15T08:56:10.176Z,27.53
2022-12-15T08:58:37.053Z,30.90
2022-12-15T09:01:08.283Z,31.87
2022-12-15T09:03:36.167Z,32.40
2022-12-15T09:06:04.104Z,36.63
2022-12-15T09:08:31.296Z,36.40
2022-12-15T09:10:59.352Z,36.23
2022-12-15T09:13:26.522Z,54.47
2022-12-15T09:16:09.321Z,36.03
2022-12-15T09:18:37.416Z,35.10
2022-12-15T09:21:05.126Z,30.67
2022-12-15T09:23:32.407Z,27.53
2022-12-15T09:26:06.746Z,28.37
2022-12-15T09:28:33.884Z,27.97
2022-12-15T09:31:28.518Z,28.47
2022-12-15T09:33:57.611Z,26.93
2022-12-15T09:36:24.964Z,26.57
2022-12-15T09:38:51.759Z,28.67
2022-12-15T09:41:22.106Z,31.20
2022-12-15T09:43:56.411Z,29.67
2022-12-15T09:46:27.115Z,29.50
2022-12-15T09:48:54.409Z,27.37
2022-12-15T09:51:24.300Z,24.07
2022-12-15T09:53:56.130Z,26.53
2022-12-15T09:56:32.853Z,25.07
2022-12-15T09:58:59.691Z,24.93
2022-12-15T10:01:39.193Z,24.53
2022-12-15T10:04:21.291Z,27.50
2022-12-15T10:07:03.834Z,28.10
2022-12-15T10:09:31.050Z,30.40
2022-12-15T10:12:00.490Z,24.57
2022-12-15T10:14:27.357Z,22.73
2022-12-15T10:17:06.629Z,28.13
2022-12-15T10:19:42.857Z,27.13
2022-12-15T10:22:27.100Z,25.53
2022-12-15T10:25:12.474Z,23.73
2022-12-15T10:27:58.337Z,23.70
2022-12-15T10:30:25.476Z,23.73
2022-12-15T10:33:01.297Z,23.00
2022-12-15T10:35:32.550Z,27.07
2022-12-15T10:38:01.484Z,25.30
2022-12-15T10:43:36.808Z,25.20
2022-12-15T10:46:04.125Z,24.73
2022-12-15T10:48:31.472Z,24.20
2022-12-15T10:51:14.124Z,26.47
2022-12-15T10:53:53.185Z,25.23
2022-12-15T10:56:25.908Z,24.77
2022-12-15T10:58:57.736Z,21.57
2022-12-15T11:01:25.976Z,24.20
2022-12-15T11:03:54.409Z,22.90
2022-12-15T11:06:21.899Z,24.00
2022-12-15T11:08:50.099Z,23.17
2022-12-15T11:11:46.379Z,24.43
2022-12-15T11:14:16.157Z,26.60
2022-12-15T11:16:48.976Z,23.67
2022-12-15T11:19:24.803Z,24.63
2022-12-15T11:21:56.553Z,26.93
2022-12-15T11:24:33.196Z,25.50
2022-12-15T11:27:23.507Z,25.33
2022-12-15T11:30:03.104Z,26.60
2022-12-15T11:32:32.118Z,27.33
2022-12-15T11:34:59.244Z,23.77
2022-12-15T11:37:36.921Z,25.20
2022-12-15T11:40:22.218Z,22.80
2022-12-15T11:43:21.396Z,22.80
2022-12-15T11:46:00.095Z,23.27
2022-12-15T11:48:43.329Z,25.47
2022-12-15T11:51:22.297Z,23.50
2022-12-15T11:54:08.205Z,22.60
2022-12-15T11:56:37.322Z,20.90
2022-12-15T11:59:04.177Z,22.53
2022-12-15T12:01:36.988Z,20.63
2022-12-15T12:04:24.801Z,21.27
2022-12-15T12:07:00.228Z,22.20
2022-12-15T12:09:50.083Z,21.83
2022-12-15T12:12:20.024Z,22.87
2022-12-15T12:15:05.504Z,23.53
2022-12-15T12:17:38.310Z,21.33
2022-12-15T12:20:25.937Z,21.67
2022-12-15T12:23:09.092Z,22.60
2022-12-15T12:25:41.891Z,20.37
2022-12-15T12:28:35.277Z,21.27
2022-12-15T12:31:03.759Z,21.87
2022-12-15T12:33:30.491Z,21.67
2022-12-15T12:36:23.704Z,22.50
2022-12-15T12:38:53.215Z,24.23
2022-12-15T12:41:26.066Z,23.60
2022-12-15T12:43:55.912Z,24.40
2022-12-15T12:46:32.482Z,24.70
2022-12-15T12:49:06.646Z,22.50
2022-12-15T12:51:34.651Z,23.13
2022-12-15T12:54:01.796Z,20.73
2022-12-15T12:56:50.365Z,22.23
2022-12-15T12:59:29.471Z,21.50
2022-12-15T13:01:57.424Z,22.67
2022-12-15T13:04:30.286Z,22.47
2022-12-15T13:07:08.876Z,22.73
2022-12-15T13:09:38.476Z,23.90
2022-12-15T13:12:27.522Z,27.00
2022-12-15T13:14:54.933Z,31.63
2022-12-15T13:17:28.730Z,28.13
2022-12-15T13:20:01.575Z,25.63
2022-12-15T13:22:31.711Z,24.73
2022-12-15T13:24:59.354Z,23.67
2022-12-15T13:27:35.388Z,24.27
2022-12-15T13:30:13.785Z,25.03
2022-12-15T13:32:42.179Z,23.57
2022-12-15T13:35:15.553Z,23.57
2022-12-15T13:37:48.863Z,30.87
2022-12-15T13:40:35.857Z,29.10
2022-12-15T13:43:05.495Z,27.47
2022-12-15T13:45:36.911Z,28.60
2022-12-15T13:48:18.963Z,28.10
2022-12-15T13:50:51.388Z,30.33
2022-12-15T13:53:42.239Z,29.60
2022-12-15T13:56:12.143Z,31.10
2022-12-15T13:58:44.961Z,25.30
2022-12-15T14:01:32.275Z,22.57
2022-12-15T14:04:06.266Z,24.37
2022-12-15T14:06:38.504Z,26.80
2022-12-15T14:09:06.624Z,23.23
2022-12-15T14:11:52.720Z,26.33
2022-12-15T14:14:23.673Z,27.07
2022-12-15T14:16:55.238Z,26.97
2022-12-15T14:19:22.676Z,27.07
2022-12-15T14:21:53.853Z,26.63
2022-12-15T14:24:41.251Z,27.77
2022-12-15T14:27:08.349Z,26.93
2022-12-15T14:29:35.229Z,30.87
2022-12-15T14:32:02.489Z,30.33
2022-12-15T14:34:32.658Z,31.67
2022-12-15T14:37:02.421Z,31.33
2022-12-15T14:39:29.735Z,32.83
2022-12-15T14:41:57.887Z,32.27
2022-12-15T14:44:37.284Z,29.17
2022-12-15T14:47:07.212Z,30.40
2022-12-15T14:49:41.151Z,29.70
2022-12-15T14:52:17.989Z,26.70
2022-12-15T14:54:57.509Z,29.40
2022-12-15T14:57:26.694Z,29.63
2022-12-15T14:59:53.582Z,29.80
2022-12-15T15:02:28.694Z,30.30
2022-12-15T15:03:12.380Z,27.10
2022-12-15T15:04:56.489Z,26.63
2022-12-15T15:07:23.965Z,35.37
2022-12-15T15:10:01.279Z,40.40
2022-12-15T15:12:43.588Z,42.28
2022-12-15T15:15:30.104Z,37.12
2022-12-15T15:17:59.172Z,41.40
2022-12-15T15:20:28.164Z,28.97
2022-12-15T15:23:07.293Z,34.20
2022-12-15T15:25:39.261Z,43.03
2022-12-15T15:28:12.956Z,40.70
2022-12-15T15:30:49.119Z,32.13
2022-12-15T15:33:16.828Z,19.73
2022-12-15T15:35:44.520Z,25.57
2022-12-15T15:38:20.432Z,23.93
2022-12-15T15:40:54.917Z,23.87
2022-12-15T15:43:22.272Z,36.03
2022-12-15T15:45:49.750Z,49.23
2022-12-15T15:48:20.982Z,60.43
2022-12-15T15:50:47.820Z,54.63
2022-12-15T15:53:20.212Z,59.70
2022-12-15T15:55:47.948Z,66.80
2022-12-15T15:58:14.876Z,70.53
2022-12-15T16:00:41.689Z,75.87
2022-12-15T16:03:09.079Z,79.17
2022-12-15T16:05:36.342Z,77.40
2022-12-15T16:08:04.053Z,69.87
2022-12-15T16:10:30.976Z,67.10
2022-12-15T16:13:00.645Z,66.80
2022-12-15T16:15:29.538Z,61.07
2022-12-15T16:17:56.536Z,60.87
2022-12-15T16:20:25.921Z,69.50
2022-12-15T16:23:22.328Z,79.90
2022-12-15T16:25:53.156Z,76.23
2022-12-15T16:28:21.372Z,76.97
2022-12-15T16:30:48.406Z,74.77
2022-12-15T16:33:15.598Z,76.03
2022-12-15T16:35:43.423Z,80.40
2022-12-15T16:38:31.056Z,75.90
2022-12-15T16:40:58.914Z,76.07
2022-12-15T16:43:28.934Z,79.20
2022-12-15T16:46:00.427Z,79.87
2022-12-15T16:48:27.294Z,88.77
2022-12-15T16:50:55.462Z,89.47
2022-12-15T16:53:23.754Z,86.10
2022-12-15T16:56:13.483Z,84.30
2022-12-15T16:58:40.296Z,90.37
2022-12-15T17:01:07.175Z,94.63
2022-12-15T17:03:34.154Z,88.47
2022-12-15T17:06:02.294Z,87.80
2022-12-15T17:08:35.281Z,86.00
2022-12-15T17:11:02.583Z,100.60
2022-12-15T17:13:39.099Z,114.93
2022-12-15T17:16:11.484Z,109.47
2022-12-15T17:18:38.664Z,92.67
2022-12-15T17:21:07.117Z,82.63
2022-12-15T17:23:35.284Z,81.77
2022-12-15T17:26:22.685Z,74.77
2022-12-15T17:28:49.672Z,72.17
2022-12-15T17:31:21.218Z,71.53
2022-12-15T17:33:48.491Z,79.67
2022-12-15T17:36:18.441Z,73.00
2022-12-15T17:38:45.624Z,71.03
2022-12-15T17:41:34.990Z,71.40
2022-12-15T17:44:31.585Z,73.63
2022-12-15T17:46:49.420Z,105.40
2022-12-15T17:49:16.323Z,90.57
2022-12-15T17:51:44.093Z,80.63
2022-12-15T17:54:18.064Z,82.30
2022-12-15T17:56:49.377Z,85.83
2022-12-15T17:59:22.675Z,87.20
2022-12-15T18:01:49.669Z,97.37
2022-12-15T18:04:16.571Z,97.87
2022-12-15T18:06:44.243Z,93.77
2022-12-15T18:09:18.209Z,83.43
2022-12-15T18:11:47.037Z,76.00
2022-12-15T18:14:15.041Z,78.27
2022-12-15T18:16:42.213Z,71.47
2022-12-15T18:19:09.064Z,65.30
2022-12-15T18:21:36.204Z,63.80
2022-12-15T18:24:03.161Z,64.23
2022-12-15T18:26:31.600Z,64.23
2022-12-15T18:28:58.454Z,67.43
2022-12-15T18:31:26.735Z,74.40
2022-12-15T18:33:54.990Z,83.50
2022-12-15T18:36:23.882Z,128.23
2022-12-15T18:38:51.635Z,109.93
2022-12-15T18:41:19.543Z,97.33
2022-12-15T18:43:46.914Z,98.23
2022-12-15T18:46:15.090Z,97.27
2022-12-15T18:48:42.464Z,89.23
2022-12-15T18:51:16.848Z,80.63
2022-12-15T18:53:44.176Z,81.43
2022-12-15T18:56:13.389Z,85.43
2022-12-15T18:58:40.390Z,102.77
2022-12-15T19:01:07.678Z,98.63
2022-12-15T19:03:35.989Z,105.63
2022-12-15T19:06:04.254Z,101.13
2022-12-15T19:08:36.250Z,106.73
2022-12-15T19:11:19.483Z,108.17
2022-12-15T19:13:46.718Z,109.40
2022-12-15T19:16:16.443Z,115.43
2022-12-15T19:19:01.920Z,104.67
2022-12-15T19:21:44.692Z,92.80
2022-12-15T19:24:42.319Z,73.83
2022-12-15T19:27:12.942Z,73.60
2022-12-15T19:29:40.546Z,73.07
2022-12-15T19:32:07.720Z,72.67
2022-12-15T19:34:35.179Z,79.93
2022-12-15T19:37:02.651Z,82.20
2022-12-15T19:39:30.298Z,78.67
2022-12-15T19:41:57.207Z,76.30
2022-12-15T19:44:24.098Z,78.53
2022-12-15T19:46:51.009Z,56.63
2022-12-15T19:49:17.811Z,83.20
2022-12-15T19:51:44.804Z,85.13
2022-12-15T19:54:19.734Z,91.70
2022-12-15T19:56:47.598Z,96.37
2022-12-15T19:59:19.654Z,102.37
2022-12-15T20:01:46.580Z,107.43
2022-12-15T20:04:13.574Z,104.30
2022-12-15T20:06:40.692Z,112.70
2022-12-15T20:09:10.579Z,115.20
2022-12-15T20:11:38.986Z,115.63
2022-12-15T20:14:11.292Z,108.00
2022-12-15T20:16:38.327Z,102.33
2022-12-15T20:19:05.562Z,99.80
2022-12-15T20:21:34.040Z,101.50
2022-12-15T20:24:02.435Z,90.27
2022-12-15T20:26:30.431Z,81.23
2022-12-15T20:28:58.080Z,72.87
2022-12-15T20:31:25.513Z,62.23
2022-12-15T20:33:53.007Z,67.80
2022-12-15T20:36:22.291Z,99.60
2022-12-15T20:38:49.104Z,81.27
2022-12-15T20:41:18.079Z,77.03
2022-12-15T20:43:45.263Z,93.53
2022-12-15T20:46:15.942Z,71.67
2022-12-15T20:48:43.416Z,56.67
2022-12-15T20:51:14.391Z,49.87
2022-12-15T20:53:41.257Z,50.67
2022-12-15T20:56:08.428Z,62.07
2022-12-15T20:58:41.093Z,73.37
2022-12-15T21:01:16.875Z,54.10
2022-12-15T21:03:43.838Z,46.80
2022-12-15T21:06:11.005Z,55.60
2022-12-15T21:08:38.043Z,53.93
2022-12-15T21:11:24.639Z,47.70
2022-12-15T21:13:53.188Z,48.67
2022-12-15T21:16:21.703Z,44.73
2022-12-15T21:19:18.577Z,45.77
2022-12-15T21:21:37.489Z,43.93
2022-12-15T21:24:24.587Z,43.77
2022-12-15T21:26:52.256Z,44.40
2022-12-15T21:29:20.390Z,43.47
2022-12-15T21:31:47.349Z,42.00
2022-12-15T21:34:14.580Z,43.67
2022-12-15T21:36:43.047Z,40.93
2022-12-15T21:39:12.992Z,40.03
2022-12-15T21:41:41.787Z,38.00
2022-12-15T21:44:14.861Z,36.83
2022-12-15T21:46:42.154Z,36.90
2022-12-15T21:49:17.890Z,40.63
2022-12-15T21:51:50.460Z,41.83
2022-12-15T21:54:20.314Z,42.27
2022-12-15T21:56:48.596Z,43.80
2022-12-15T21:59:17.409Z,45.53
2022-12-15T22:01:44.675Z,45.57
2022-12-15T22:04:16.973Z,42.00
2022-12-15T22:06:49.966Z,39.93
2022-12-15T22:09:18.834Z,38.83
2022-12-15T22:11:46.896Z,39.33
2022-12-15T22:14:19.651Z,39.47
2022-12-15T22:16:47.028Z,37.23
2022-12-15T22:19:13.933Z,37.93
2022-12-15T22:21:43.526Z,40.17
2022-12-15T22:24:10.770Z,42.63
2022-12-15T22:26:38.364Z,38.23
2022-12-15T22:29:34.561Z,39.97
2022-12-15T22:32:01.952Z,41.57
2022-12-15T22:34:28.742Z,40.13
2022-12-15T22:36:55.669Z,40.20
2022-12-15T22:39:22.461Z,42.80
2022-12-15T22:41:50.900Z,41.20
2022-12-15T22:44:25.408Z,40.83
2022-12-15T22:46:54.020Z,41.43
2022-12-15T22:49:29.140Z,41.23
2022-12-15T22:51:56.022Z,47.50
2022-12-15T22:54:24.584Z,46.97
2022-12-15T22:56:55.004Z,47.13
2022-12-15T22:59:28.110Z,46.13
2022-12-15T23:01:55.157Z,46.70
2022-12-15T23:04:22.470Z,50.07
2022-12-15T23:06:49.531Z,47.47
2022-12-15T23:09:18.608Z,46.20
2022-12-15T23:11:45.627Z,43.40
2022-12-15T23:14:14.057Z,45.37
2022-12-15T23:16:41.248Z,42.17
2022-12-15T23:19:08.348Z,42.37
2022-12-15T23:21:36.423Z,45.13
2022-12-15T23:24:03.268Z,43.20
2022-12-15T23:26:30.156Z,41.97
2022-12-15T23:28:56.942Z,42.13
2022-12-15T23:31:23.776Z,45.30
2022-12-15T23:33:52.176Z,44.30
2022-12-15T23:36:19.897Z,43.83
2022-12-15T23:38:46.819Z,43.93
2022-12-15T23:41:17.238Z,43.60
2022-12-15T23:43:44.256Z,41.57
2022-12-15T23:46:11.277Z,41.87
2022-12-15T23:48:39.248Z,39.50
2022-12-15T23:51:07.587Z,38.77
2022-12-15T23:53:35.831Z,39.13
2022-12-15T23:56:22.513Z,37.50
2022-12-15T23:58:54.710Z,38.87
